createdAt,value
2018-04-02T00:00:24.909Z,6.76
2018-04-02T00:01:24.913Z,6.84
2018-04-02T00:02:24.917Z,6.88
2018-04-02T00:03:24.928Z,6.76
2018-04-02T00:04:24.940Z,6.71
2018-04-02T00:05:24.969Z,6.69
2018-04-02T00:06:24.964Z,6.38
2018-04-02T00:07:24.976Z,6.40
2018-04-02T00:08:24.987Z,6.27
2018-04-02T00:09:25.002Z,6.64
2018-04-02T00:10:25.029Z,6.43
2018-04-02T00:11:25.021Z,6.25
2018-04-02T00:12:25.038Z,6.41
2018-04-02T00:13:25.066Z,6.43
2018-04-02T00:14:25.057Z,6.43
2018-04-02T00:15:25.070Z,6.67
2018-04-02T00:16:25.133Z,6.54
2018-04-02T00:17:25.092Z,6.40
2018-04-02T00:18:25.120Z,6.48
2018-04-02T00:19:25.120Z,6.43
2018-04-02T00:20:25.146Z,6.44
2018-04-02T00:21:25.138Z,6.31
2018-04-02T00:22:25.151Z,6.48
2018-04-02T00:23:25.163Z,6.51
2018-04-02T00:24:25.173Z,6.56
2018-04-02T00:25:25.219Z,6.49
2018-04-02T00:26:25.197Z,6.44
2018-04-02T00:27:25.208Z,6.74
2018-04-02T00:28:25.219Z,6.49
2018-04-02T00:29:25.258Z,6.36
2018-04-02T00:30:25.263Z,6.19
2018-04-02T00:31:25.257Z,6.49
2018-04-02T00:32:25.267Z,6.43
2018-04-02T00:33:25.292Z,6.69
2018-04-02T00:34:25.298Z,6.37
2018-04-02T00:35:25.306Z,6.34
2018-04-02T00:36:25.354Z,6.33
2018-04-02T00:37:25.324Z,6.19
2018-04-02T00:38:25.357Z,6.19
2018-04-02T00:39:25.349Z,6.12
2018-04-02T00:40:25.359Z,6.22
2018-04-02T00:41:25.391Z,6.25
2018-04-02T00:42:25.403Z,6.19
2018-04-02T00:43:25.396Z,6.11
2018-04-02T00:44:25.403Z,6.12
2018-04-02T00:45:25.413Z,6.00
2018-04-02T00:46:25.428Z,6.25
2018-04-02T00:47:25.504Z,6.54
2018-04-02T00:48:25.459Z,6.67
2018-04-02T00:49:25.465Z,6.56
2018-04-02T00:50:25.474Z,6.43
2018-04-02T00:51:25.485Z,6.37
2018-04-02T00:52:25.498Z,6.18
2018-04-02T00:53:25.525Z,6.17
2018-04-02T00:54:25.535Z,6.08
2018-04-02T00:55:25.534Z,6.01
2018-04-02T00:56:25.544Z,5.99
2018-04-02T00:57:25.558Z,6.22
2018-04-02T00:58:25.588Z,6.17
2018-04-02T00:59:25.578Z,6.17
2018-04-02T01:00:25.589Z,6.27
2018-04-02T01:01:25.600Z,6.22
2018-04-02T01:02:25.623Z,6.22
2018-04-02T01:03:25.641Z,6.19
2018-04-02T01:04:25.694Z,6.40
2018-04-02T01:05:25.648Z,6.25
2018-04-02T01:06:25.663Z,6.06
2018-04-02T01:07:25.673Z,6.06
2018-04-02T01:08:25.678Z,6.12
2018-04-02T01:09:25.720Z,6.12
2018-04-02T01:10:25.724Z,6.25
2018-04-02T01:11:25.722Z,6.11
2018-04-02T01:12:25.741Z,6.01
2018-04-02T01:13:25.746Z,6.01
2018-04-02T01:14:25.757Z,5.93
2018-04-02T01:15:25.806Z,5.96
2018-04-02T01:16:25.789Z,6.00
2018-04-02T01:17:25.789Z,6.01
2018-04-02T01:18:25.798Z,5.99
2018-04-02T01:19:25.813Z,6.41
2018-04-02T01:20:25.827Z,6.19
2018-04-02T01:21:25.867Z,6.01
2018-04-02T01:22:25.866Z,6.17
2018-04-02T01:23:25.868Z,6.14
2018-04-02T01:24:25.886Z,6.09
2018-04-02T01:25:25.896Z,6.43
2018-04-02T01:26:25.912Z,6.49
2018-04-02T01:27:25.941Z,6.49
2018-04-02T01:28:25.914Z,6.71
2018-04-02T01:29:25.951Z,6.41
2018-04-02T01:30:25.946Z,6.19
2018-04-02T01:31:25.958Z,6.25
2018-04-02T01:32:25.992Z,6.21
2018-04-02T01:33:25.993Z,6.17
2018-04-02T01:34:25.992Z,6.18
2018-04-02T01:35:25.999Z,6.12
2018-04-02T01:36:26.009Z,6.18
2018-04-02T01:37:27.560Z,6.28
2018-04-02T01:38:26.055Z,6.22
2018-04-02T01:39:26.049Z,6.14
2018-04-02T01:40:26.566Z,6.21
2018-04-02T01:41:26.064Z,6.30
2018-04-02T01:42:26.078Z,6.34
2018-04-02T01:43:26.086Z,6.28
2018-04-02T01:44:27.047Z,6.34
2018-04-02T01:45:26.139Z,6.22
2018-04-02T01:46:26.145Z,6.30
2018-04-02T01:47:26.194Z,6.30
2018-04-02T01:48:26.159Z,6.19
2018-04-02T01:49:26.176Z,6.43
2018-04-02T01:50:26.177Z,6.21
2018-04-02T01:51:26.207Z,5.94
2018-04-02T01:52:26.198Z,6.04
2018-04-02T01:53:26.202Z,5.82
2018-04-02T01:54:26.221Z,6.09
2018-04-02T01:55:26.237Z,6.08
2018-04-02T01:56:26.242Z,6.06
2018-04-02T01:57:26.267Z,6.15
2018-04-02T01:58:26.282Z,6.18
2018-04-02T01:59:26.288Z,6.09
2018-04-02T02:00:26.285Z,6.18
2018-04-02T02:01:26.296Z,6.27
2018-04-02T02:02:26.306Z,6.06
2018-04-02T02:03:26.345Z,6.01
2018-04-02T02:04:26.326Z,6.04
2018-04-02T02:05:26.346Z,6.01
2018-04-02T02:06:26.354Z,5.97
2018-04-02T02:07:26.363Z,5.90
2018-04-02T02:08:26.386Z,5.90
2018-04-02T02:09:26.434Z,6.08
2018-04-02T02:10:26.396Z,5.94
2018-04-02T02:11:26.409Z,5.83
2018-04-02T02:12:26.419Z,5.85
2018-04-02T02:13:26.431Z,5.94
2018-04-02T02:14:26.480Z,5.89
2018-04-02T02:15:26.453Z,5.82
2018-04-02T02:16:26.471Z,5.81
2018-04-02T02:17:26.479Z,5.81
2018-04-02T02:18:26.487Z,6.04
2018-04-02T02:19:26.530Z,6.14
2018-04-02T02:20:26.514Z,6.01
2018-04-02T02:21:26.520Z,6.09
2018-04-02T02:22:26.535Z,5.97
2018-04-02T02:23:26.551Z,5.83
2018-04-02T02:24:26.570Z,6.01
2018-04-02T02:25:26.599Z,6.14
2018-04-02T02:26:26.580Z,6.03
2018-04-02T02:27:26.606Z,6.01
2018-04-02T02:28:26.602Z,5.90
2018-04-02T02:29:26.620Z,5.94
2018-04-02T02:30:26.657Z,5.83
2018-04-02T02:31:26.637Z,5.74
2018-04-02T02:32:26.643Z,5.86
2018-04-02T02:33:26.667Z,5.81
2018-04-02T02:34:26.673Z,5.83
2018-04-02T02:35:26.700Z,5.81
2018-04-02T02:36:26.694Z,5.86
2018-04-02T02:37:26.753Z,5.78
2018-04-02T02:38:26.720Z,5.85
2018-04-02T02:39:26.738Z,5.79
2018-04-02T02:40:26.756Z,5.91
2018-04-02T02:41:26.751Z,5.79
2018-04-02T02:42:26.773Z,5.89
2018-04-02T02:43:26.777Z,5.83
2018-04-02T02:44:26.800Z,5.93
2018-04-02T02:45:26.832Z,6.01
2018-04-02T02:46:26.810Z,6.14
2018-04-02T02:47:26.825Z,6.14
2018-04-02T02:48:26.834Z,6.21
2018-04-02T02:49:26.843Z,5.97
2018-04-02T02:50:26.877Z,6.04
2018-04-02T02:51:26.866Z,5.89
2018-04-02T02:52:26.882Z,5.78
2018-04-02T02:53:26.935Z,5.67
2018-04-02T02:54:26.904Z,5.60
2018-04-02T02:55:26.922Z,5.61
2018-04-02T02:56:26.932Z,5.82
2018-04-02T02:57:26.941Z,6.06
2018-04-02T02:58:26.949Z,5.96
2018-04-02T02:59:26.990Z,5.93
2018-04-02T03:00:26.975Z,5.74
2018-04-02T03:01:26.982Z,5.64
2018-04-02T03:02:26.995Z,5.81
2018-04-02T03:03:27.007Z,5.60
2018-04-02T03:04:27.021Z,5.43
2018-04-02T03:05:27.045Z,5.51
2018-04-02T03:06:27.045Z,5.67
2018-04-02T03:07:27.049Z,5.53
2018-04-02T03:08:27.116Z,5.40
2018-04-02T03:09:27.087Z,5.25
2018-04-02T03:10:27.096Z,5.35
2018-04-02T03:11:27.104Z,5.31
2018-04-02T03:12:27.128Z,5.18
2018-04-02T03:13:27.154Z,5.24
2018-04-02T03:14:27.135Z,5.07
2018-04-02T03:15:27.165Z,5.07
2018-04-02T03:16:27.150Z,5.38
2018-04-02T03:17:27.168Z,5.64
2018-04-02T03:18:27.210Z,5.48
2018-04-02T03:19:27.181Z,5.27
2018-04-02T03:20:27.216Z,5.10
2018-04-02T03:21:27.207Z,5.12
2018-04-02T03:22:27.218Z,5.00
2018-04-02T03:23:27.267Z,4.97
2018-04-02T03:24:27.242Z,4.88
2018-04-02T03:25:27.257Z,4.84
2018-04-02T03:26:27.270Z,5.27
2018-04-02T03:27:27.279Z,5.20
2018-04-02T03:28:27.302Z,4.91
2018-04-02T03:29:27.300Z,4.69
2018-04-02T03:30:27.329Z,4.65
2018-04-02T03:31:27.324Z,4.58
2018-04-02T03:32:27.344Z,4.54
2018-04-02T03:33:27.344Z,4.86
2018-04-02T03:34:27.388Z,4.82
2018-04-02T03:35:27.366Z,5.02
2018-04-02T03:36:27.381Z,4.78
2018-04-02T03:37:27.391Z,4.94
2018-04-02T03:38:27.401Z,4.63
2018-04-02T03:39:27.440Z,4.37
2018-04-02T03:40:27.421Z,4.32
2018-04-02T03:41:27.431Z,4.30
2018-04-02T03:42:27.448Z,4.40
2018-04-02T03:43:27.462Z,4.29
2018-04-02T03:44:27.483Z,4.47
2018-04-02T03:45:27.499Z,4.40
2018-04-02T03:46:27.492Z,4.59
2018-04-02T03:47:27.501Z,4.67
2018-04-02T03:48:27.514Z,4.99
2018-04-02T03:49:27.524Z,4.82
2018-04-02T03:50:27.560Z,4.55
2018-04-02T03:51:27.546Z,4.45
2018-04-02T03:52:27.558Z,4.42
2018-04-02T03:53:27.569Z,4.33
2018-04-02T03:54:27.581Z,4.23
2018-04-02T03:55:27.628Z,4.15
2018-04-02T03:56:27.605Z,4.23
2018-04-02T03:57:27.612Z,4.29
2018-04-02T03:58:27.639Z,4.27
2018-04-02T03:59:27.633Z,4.14
2018-04-02T04:00:27.650Z,4.12
2018-04-02T04:01:27.672Z,4.30
2018-04-02T04:02:27.671Z,4.23
2018-04-02T04:03:27.676Z,4.22
2018-04-02T04:04:27.692Z,4.12
2018-04-02T04:05:27.729Z,4.33
2018-04-02T04:06:27.714Z,4.47
2018-04-02T04:07:27.727Z,4.70
2018-04-02T04:08:27.733Z,4.33
2018-04-02T04:09:27.747Z,4.32
2018-04-02T04:10:27.766Z,4.26
2018-04-02T04:11:27.782Z,4.42
2018-04-02T04:12:27.780Z,4.40
2018-04-02T04:13:27.793Z,4.23
2018-04-02T04:14:27.801Z,4.09
2018-04-02T04:15:27.817Z,4.33
2018-04-02T04:16:27.856Z,4.54
2018-04-02T04:17:27.837Z,4.72
2018-04-02T04:18:27.849Z,4.54
2018-04-02T04:19:28.571Z,4.30
2018-04-02T04:20:27.871Z,4.11
2018-04-02T04:21:27.921Z,4.15
2018-04-02T04:22:27.893Z,3.97
2018-04-02T04:23:27.896Z,3.96
2018-04-02T04:24:27.937Z,3.91
2018-04-02T04:25:27.950Z,3.86
2018-04-02T04:26:27.977Z,3.78
2018-04-02T04:27:28.000Z,3.90
2018-04-02T04:28:27.970Z,4.12
2018-04-02T04:29:27.974Z,4.40
2018-04-02T04:30:27.988Z,4.62
2018-04-02T04:31:28.032Z,4.73
2018-04-02T04:32:28.006Z,4.80
2018-04-02T04:33:28.010Z,4.52
2018-04-02T04:34:28.023Z,4.30
2018-04-02T04:35:28.031Z,4.23
2018-04-02T04:36:28.073Z,4.05
2018-04-02T04:37:28.056Z,3.97
2018-04-02T04:38:28.074Z,3.84
2018-04-02T04:39:28.075Z,3.98
2018-04-02T04:40:29.090Z,4.18
2018-04-02T04:41:28.114Z,4.22
2018-04-02T04:42:28.126Z,4.36
2018-04-02T04:43:28.125Z,4.22
2018-04-02T04:44:28.131Z,3.93
2018-04-02T04:45:28.143Z,3.88
2018-04-02T04:46:28.177Z,3.73
2018-04-02T04:47:28.165Z,3.65
2018-04-02T04:48:28.183Z,3.69
2018-04-02T04:49:28.187Z,3.68
2018-04-02T04:50:28.221Z,3.66
2018-04-02T04:51:28.247Z,3.55
2018-04-02T04:52:28.219Z,3.55
2018-04-02T04:53:28.227Z,3.50
2018-04-02T04:54:28.241Z,3.45
2018-04-02T04:55:28.257Z,3.47
2018-04-02T04:56:28.302Z,3.43
2018-04-02T04:57:28.291Z,3.42
2018-04-02T04:58:28.285Z,3.42
2018-04-02T04:59:28.321Z,3.47
2018-04-02T05:00:28.313Z,3.58
2018-04-02T05:01:28.348Z,3.65
2018-04-02T05:02:28.330Z,3.73
2018-04-02T05:03:28.343Z,3.73
2018-04-02T05:04:28.351Z,3.57
2018-04-02T05:05:28.361Z,3.58
2018-04-02T05:06:28.407Z,3.69
2018-04-02T05:07:28.386Z,4.04
2018-04-02T05:08:28.395Z,3.96
2018-04-02T05:09:28.404Z,3.83
2018-04-02T05:10:28.417Z,3.84
2018-04-02T05:11:28.442Z,3.79
2018-04-02T05:12:28.436Z,3.78
2018-04-02T05:13:28.491Z,3.69
2018-04-02T05:14:28.462Z,3.65
2018-04-02T05:15:28.490Z,3.68
2018-04-02T05:16:28.479Z,3.84
2018-04-02T05:17:28.494Z,3.84
2018-04-02T05:18:28.531Z,3.93
2018-04-02T05:19:28.515Z,3.97
2018-04-02T05:20:28.525Z,4.04
2018-04-02T05:21:28.531Z,3.96
2018-04-02T05:22:28.547Z,3.80
2018-04-02T05:23:28.563Z,3.93
2018-04-02T05:24:28.597Z,3.86
2018-04-02T05:25:28.577Z,3.75
2018-04-02T05:26:28.591Z,3.72
2018-04-02T05:27:28.599Z,3.88
2018-04-02T05:28:28.613Z,3.75
2018-04-02T05:29:28.637Z,3.76
2018-04-02T05:30:28.629Z,3.76
2018-04-02T05:31:28.654Z,3.72
2018-04-02T05:32:28.654Z,3.75
2018-04-02T05:33:28.700Z,3.80
2018-04-02T05:34:28.681Z,3.87
2018-04-02T05:35:28.690Z,3.80
2018-04-02T05:36:28.698Z,3.94
2018-04-02T05:37:28.714Z,3.98
2018-04-02T05:38:28.755Z,3.88
2018-04-02T05:39:28.735Z,3.96
2018-04-02T05:40:28.746Z,4.20
2018-04-02T05:41:32.801Z,4.33
2018-04-02T05:42:29.087Z,4.62
2018-04-02T05:43:28.789Z,4.63
2018-04-02T05:44:28.791Z,4.84
2018-04-02T05:45:28.805Z,5.13
2018-04-02T05:46:28.807Z,5.35
2018-04-02T05:47:28.824Z,5.33
2018-04-02T05:48:28.862Z,5.61
2018-04-02T05:49:28.867Z,6.12
2018-04-02T05:50:28.850Z,6.19
2018-04-02T05:51:28.863Z,6.18
2018-04-02T05:52:28.880Z,6.01
2018-04-02T05:53:28.900Z,6.03
2018-04-02T05:54:28.915Z,6.34
2018-04-02T05:55:28.925Z,6.22
2018-04-02T05:56:28.920Z,6.27
2018-04-02T05:57:28.934Z,6.41
2018-04-02T05:58:28.972Z,6.88
2018-04-02T05:59:28.953Z,6.71
2018-04-02T06:00:28.997Z,6.98
2018-04-02T06:01:29.029Z,6.99
2018-04-02T06:02:28.989Z,6.94
2018-04-02T06:03:29.011Z,7.05
2018-04-02T06:04:29.020Z,7.16
2018-04-02T06:05:29.035Z,7.24
2018-04-02T06:06:29.065Z,7.39
2018-04-02T06:07:29.060Z,7.55
2018-04-02T06:08:29.096Z,7.90
2018-04-02T06:09:29.071Z,8.04
2018-04-02T06:10:29.130Z,8.56
2018-04-02T06:11:29.094Z,8.36
2018-04-02T06:12:29.108Z,8.38
2018-04-02T06:13:29.119Z,8.40
2018-04-02T06:14:29.136Z,8.52
2018-04-02T06:15:29.161Z,8.92
2018-04-02T06:16:29.155Z,8.87
2018-04-02T06:17:29.171Z,9.10
2018-04-02T06:18:29.180Z,9.42
2018-04-02T06:19:29.190Z,9.58
2018-04-02T06:20:29.219Z,9.29
2018-04-02T06:21:29.214Z,9.51
2018-04-02T06:22:29.368Z,9.93
2018-04-02T06:23:29.339Z,10.34
2018-04-02T06:24:29.424Z,9.90
2018-04-02T06:25:29.275Z,9.90
2018-04-02T06:26:29.444Z,9.76
2018-04-02T06:27:29.543Z,9.83
2018-04-02T06:28:29.310Z,9.66
2018-04-02T06:29:29.316Z,9.39
2018-04-02T06:30:29.448Z,9.71
2018-04-02T06:31:29.338Z,9.84
2018-04-02T06:32:29.370Z,9.68
2018-04-02T06:33:29.366Z,9.51
2018-04-02T06:34:29.381Z,9.84
2018-04-02T06:39:00.449Z,10.04
2018-04-02T06:39:49.636Z,9.97
2018-04-02T06:40:49.845Z,10.20
2018-04-02T06:41:49.663Z,9.97
2018-04-02T06:42:49.684Z,10.48
2018-04-02T06:43:49.684Z,10.30
2018-04-02T06:44:49.742Z,10.20
2018-04-02T06:45:49.710Z,10.56
2018-04-02T06:46:49.735Z,10.30
2018-04-02T06:47:49.738Z,10.14
2018-04-02T06:48:49.753Z,10.51
2018-04-02T06:49:49.783Z,10.53
2018-04-02T06:50:49.778Z,10.82
2018-04-02T06:51:49.791Z,10.92
2018-04-02T06:57:26.958Z,10.61
2018-04-02T06:58:26.946Z,10.40
2018-04-02T06:59:26.958Z,10.38
2018-04-02T07:00:26.970Z,10.61
2018-04-02T07:01:26.984Z,10.48
2018-04-02T07:02:27.012Z,10.66
2018-04-02T07:03:27.010Z,11.10
2018-04-02T07:04:27.049Z,10.64
2018-04-02T07:05:27.036Z,10.60
2018-04-02T07:06:27.049Z,10.56
2018-04-02T07:07:27.074Z,10.53
2018-04-02T07:08:27.074Z,10.59
2018-04-02T07:09:27.093Z,10.91
2018-04-02T07:10:27.124Z,10.78
2018-04-02T07:11:27.119Z,11.15
2018-04-02T07:12:27.131Z,11.24
2018-04-02T07:13:27.143Z,11.33
2018-04-02T07:14:27.159Z,10.97
2018-04-02T07:15:27.190Z,11.00
2018-04-02T07:16:27.190Z,11.02
2018-04-02T07:17:27.230Z,11.14
2018-04-02T07:18:27.209Z,11.43
2018-04-02T07:19:27.242Z,11.32
2018-04-02T07:20:27.240Z,11.03
2018-04-02T07:21:27.254Z,11.03
2018-04-02T07:22:27.312Z,11.09
2018-04-02T07:23:27.281Z,11.06
2018-04-02T07:24:27.296Z,11.06
2018-04-02T07:25:27.308Z,11.07
2018-04-02T07:26:27.322Z,11.47
2018-04-02T07:27:27.365Z,11.75
2018-04-02T07:28:27.350Z,11.61
2018-04-02T07:29:27.407Z,11.72
2018-04-02T07:30:27.376Z,11.76
2018-04-02T07:31:27.396Z,11.94
2018-04-02T07:32:27.410Z,11.54
2018-04-02T07:33:27.445Z,11.55
2018-04-02T07:34:27.433Z,11.61
2018-04-02T07:35:27.445Z,11.60
2018-04-02T07:36:27.462Z,12.77
2018-04-02T07:41:00.807Z,11.79
2018-04-02T07:42:00.785Z,11.88
2018-04-02T07:43:00.794Z,12.21
2018-04-02T07:44:00.810Z,11.69
2018-04-02T07:45:00.822Z,11.88
2018-04-02T07:46:00.838Z,11.70
2018-04-02T07:47:00.881Z,11.88
2018-04-02T07:48:00.867Z,12.10
2018-04-02T07:49:00.874Z,12.57
2018-04-02T07:50:00.891Z,12.85
2018-04-02T07:51:00.906Z,13.10
2018-04-02T07:52:01.098Z,12.85
2018-04-02T07:53:00.931Z,13.11
2018-04-02T07:54:00.948Z,13.52
2018-04-02T07:55:00.959Z,14.09
2018-04-02T07:56:00.983Z,14.47
2018-04-02T07:57:01.011Z,14.37
2018-04-02T07:58:01.003Z,14.46
2018-04-02T07:59:01.019Z,14.75
2018-04-02T08:00:01.030Z,14.33
2018-04-02T08:01:01.071Z,14.29
2018-04-02T08:02:01.076Z,14.60
2018-04-02T08:03:01.143Z,14.28
2018-04-02T08:04:01.095Z,14.60
2018-04-02T08:05:01.729Z,14.98
2018-04-02T08:06:01.125Z,15.23
2018-04-02T08:07:01.148Z,14.72
2018-04-02T08:08:01.148Z,14.61
2018-04-02T08:09:01.199Z,13.75
2018-04-02T08:10:01.362Z,14.58
2018-04-02T08:11:01.421Z,15.03
2018-04-02T08:12:01.256Z,15.01
2018-04-02T08:13:01.411Z,15.16
2018-04-02T08:14:01.394Z,15.07
2018-04-02T08:15:01.429Z,15.06
2018-04-02T08:16:01.264Z,14.99
2018-04-02T08:17:01.279Z,14.22
2018-04-02T08:18:01.365Z,14.77
2018-04-02T08:19:01.347Z,14.18
2018-04-02T08:20:01.460Z,13.77
2018-04-02T08:21:01.340Z,13.69
2018-04-02T08:22:01.367Z,13.67
2018-04-02T08:23:01.379Z,14.27
2018-04-02T08:24:01.584Z,14.54
2018-04-02T08:25:01.427Z,14.70
2018-04-02T08:26:01.457Z,15.80
2018-04-02T08:27:01.440Z,16.25
2018-04-02T08:28:01.563Z,16.53
2018-04-02T08:29:01.654Z,16.73
2018-04-02T08:30:01.563Z,16.86
2018-04-02T08:31:01.920Z,17.06
2018-04-02T08:32:03.936Z,17.33
2018-04-02T08:33:02.682Z,17.43
2018-04-02T08:34:03.850Z,16.79
2018-04-02T08:35:01.789Z,16.71
2018-04-02T08:36:01.564Z,16.97
2018-04-02T08:37:01.579Z,17.00
2018-04-02T08:38:02.044Z,16.38
2018-04-02T08:39:01.893Z,16.15
2018-04-02T08:40:01.860Z,16.17
2018-04-02T08:41:01.845Z,15.97
2018-04-02T08:42:01.856Z,16.11
2018-04-02T08:43:01.725Z,15.76
2018-04-02T08:44:02.093Z,16.57
2018-04-02T08:45:01.748Z,15.89
2018-04-02T08:46:01.938Z,15.53
2018-04-02T08:47:01.740Z,14.88
2018-04-02T08:48:01.972Z,14.42
2018-04-02T08:49:01.767Z,14.80
2018-04-02T08:50:01.830Z,15.68
2018-04-02T08:51:01.815Z,15.29
2018-04-02T08:52:01.831Z,14.58
2018-04-02T08:53:01.825Z,14.88
2018-04-02T08:54:01.842Z,15.19
2018-04-02T08:55:02.106Z,14.96
2018-04-02T08:56:01.905Z,15.46
2018-04-02T08:57:01.922Z,15.96
2018-04-02T08:58:01.907Z,16.21
2018-04-02T08:59:01.921Z,16.70
2018-04-02T09:00:01.937Z,17.08
2018-04-02T09:01:01.970Z,17.52
2018-04-02T09:02:01.965Z,17.82
2018-04-02T09:03:02.000Z,17.90
2018-04-02T09:04:02.018Z,17.96
2018-04-02T09:05:02.048Z,17.15
2018-04-02T09:06:02.046Z,17.30
2018-04-02T09:07:02.257Z,17.31
2018-04-02T09:08:02.097Z,17.08
2018-04-02T09:09:02.074Z,16.88
2018-04-02T09:10:02.097Z,17.33
2018-04-02T09:11:02.136Z,17.48
2018-04-02T09:12:02.126Z,17.00
2018-04-02T09:13:02.148Z,17.21
2018-04-02T09:14:02.157Z,17.08
2018-04-02T09:15:02.173Z,16.68
2018-04-02T09:16:02.192Z,17.26
2018-04-02T09:17:02.272Z,17.66
2018-04-02T09:18:02.419Z,17.95
2018-04-02T09:19:02.234Z,18.21
2018-04-02T09:20:02.405Z,18.33
2018-04-02T09:21:02.288Z,18.32
2018-04-02T09:22:02.379Z,17.31
2018-04-02T09:23:02.342Z,17.63
2018-04-02T09:24:02.349Z,17.87
2018-04-02T09:25:02.340Z,16.82
2018-04-02T09:26:02.348Z,17.11
2018-04-02T09:27:02.389Z,17.70
2018-04-02T09:28:02.379Z,17.96
2018-04-02T09:29:02.434Z,18.11
2018-04-02T09:30:02.412Z,18.37
2018-04-02T09:31:02.434Z,18.41
2018-04-02T09:32:02.465Z,17.59
2018-04-02T09:33:02.459Z,17.74
2018-04-02T09:34:02.497Z,18.15
2018-04-02T09:35:02.549Z,18.45
2018-04-02T09:36:02.854Z,18.45
2018-04-02T09:37:02.713Z,18.42
2018-04-02T09:38:02.546Z,18.48
2018-04-02T09:39:02.762Z,18.62
2018-04-02T09:40:05.613Z,18.72
2018-04-02T09:41:02.606Z,18.72
2018-04-02T09:42:02.868Z,18.60
2018-04-02T09:43:02.648Z,18.66
2018-04-02T09:44:02.637Z,18.72
2018-04-02T09:45:02.793Z,18.80
2018-04-02T09:46:02.879Z,18.88
2018-04-02T09:47:02.703Z,19.08
2018-04-02T09:48:02.908Z,18.88
2018-04-02T09:49:02.767Z,18.54
2018-04-02T09:50:02.740Z,18.63
2018-04-02T09:51:02.934Z,18.18
2018-04-02T09:52:02.964Z,17.63
2018-04-02T09:53:02.896Z,17.36
2018-04-02T09:54:02.823Z,17.12
2018-04-02T09:55:02.964Z,18.00
2018-04-02T09:56:02.854Z,18.27
2018-04-02T09:57:02.858Z,18.42
2018-04-02T09:58:02.904Z,18.65
2018-04-02T09:59:02.887Z,18.60
2018-04-02T10:00:02.942Z,18.20
2018-04-02T10:01:02.919Z,18.07
2018-04-02T10:02:02.948Z,18.25
2018-04-02T10:03:02.971Z,18.52
2018-04-02T10:04:02.977Z,18.75
2018-04-02T10:05:03.107Z,18.57
2018-04-02T10:06:03.007Z,18.75
2018-04-02T10:07:03.017Z,18.82
2018-04-02T10:08:03.072Z,18.82
2018-04-02T10:09:03.049Z,18.66
2018-04-02T10:10:03.101Z,18.30
2018-04-02T10:11:03.091Z,18.42
2018-04-02T10:12:03.106Z,18.81
2018-04-02T10:13:03.157Z,18.81
2018-04-02T10:14:03.133Z,19.00
2018-04-02T10:15:03.211Z,18.99
2018-04-02T10:16:03.352Z,18.84
2018-04-02T10:17:03.231Z,18.84
2018-04-02T10:18:03.262Z,18.94
2018-04-02T10:19:03.223Z,19.13
2018-04-02T10:20:03.377Z,18.99
2018-04-02T10:21:03.368Z,19.14
2018-04-02T10:22:03.405Z,18.82
2018-04-02T10:23:03.512Z,17.56
2018-04-02T10:24:03.462Z,17.04
2018-04-02T10:25:03.420Z,17.18
2018-04-02T10:26:03.381Z,16.98
2018-04-02T10:27:03.467Z,16.73
2018-04-02T10:28:03.388Z,16.93
2018-04-02T10:29:03.413Z,16.76
2018-04-02T10:30:03.404Z,16.97
2018-04-02T10:31:03.469Z,16.83
2018-04-02T10:32:03.431Z,16.38
2018-04-02T10:33:03.448Z,15.96
2018-04-02T10:34:03.494Z,15.96
2018-04-02T10:35:03.475Z,16.05
2018-04-02T10:36:03.498Z,15.76
2018-04-02T10:37:03.512Z,15.97
2018-04-02T10:38:03.540Z,15.76
2018-04-02T10:39:03.867Z,15.94
2018-04-02T10:40:03.558Z,16.58
2018-04-02T10:41:03.593Z,16.33
2018-04-02T10:42:03.592Z,17.07
2018-04-02T10:43:03.650Z,17.63
2018-04-02T10:44:03.625Z,17.97
2018-04-02T10:45:03.639Z,17.82
2018-04-02T10:46:03.666Z,17.22
2018-04-02T10:47:03.716Z,17.36
2018-04-02T10:48:03.704Z,16.83
2018-04-02T10:49:03.705Z,17.06
2018-04-02T10:50:03.721Z,16.71
2018-04-02T10:51:03.756Z,16.56
2018-04-02T10:52:03.842Z,16.63
2018-04-02T10:53:03.806Z,16.49
2018-04-02T10:54:03.790Z,16.38
2018-04-02T10:55:03.805Z,16.39
2018-04-02T10:56:03.813Z,15.92
2018-04-02T10:57:03.865Z,15.56
2018-04-02T10:58:03.861Z,15.94
2018-04-02T10:59:03.863Z,16.57
2018-04-02T11:00:03.895Z,16.28
2018-04-02T11:01:04.086Z,15.68
2018-04-02T11:02:03.909Z,15.54
2018-04-02T11:03:03.928Z,15.94
2018-04-02T11:04:03.986Z,15.65
2018-04-02T11:05:03.958Z,15.75
2018-04-02T11:06:04.051Z,16.56
2018-04-02T11:07:03.989Z,16.14
2018-04-02T11:08:04.023Z,16.48
2018-04-02T11:09:04.050Z,16.05
2018-04-02T11:10:04.038Z,16.34
2018-04-02T11:11:04.053Z,16.76
2018-04-02T11:12:04.078Z,17.31
2018-04-02T11:13:04.125Z,17.31
2018-04-02T11:14:04.100Z,17.22
2018-04-02T11:15:04.131Z,17.25
2018-04-02T11:16:04.132Z,16.66
2018-04-02T11:17:04.147Z,17.26
2018-04-02T11:18:04.215Z,17.23
2018-04-02T11:19:04.218Z,16.88
2018-04-02T11:20:04.203Z,16.68
2018-04-02T11:21:04.209Z,16.14
2018-04-02T11:22:04.231Z,15.82
2018-04-02T11:23:04.260Z,15.59
2018-04-02T11:24:04.264Z,15.72
2018-04-02T11:25:04.277Z,16.28
2018-04-02T11:26:04.290Z,16.70
2018-04-02T11:27:04.307Z,16.85
2018-04-02T11:28:04.341Z,17.23
2018-04-02T11:29:04.342Z,17.54
2018-04-02T11:30:04.354Z,16.81
2018-04-02T11:31:04.373Z,16.25
2018-04-02T11:32:04.386Z,15.90
2018-04-02T11:33:04.433Z,16.33
2018-04-02T11:34:04.417Z,16.60
2018-04-02T11:35:04.434Z,16.88
2018-04-02T11:36:04.450Z,17.34
2018-04-02T11:37:04.468Z,17.23
2018-04-02T11:38:04.499Z,17.11
2018-04-02T11:39:04.499Z,16.79
2018-04-02T11:40:04.510Z,16.33
2018-04-02T11:41:04.530Z,16.33
2018-04-02T11:42:04.543Z,16.73
2018-04-02T11:43:04.597Z,16.82
2018-04-02T11:44:04.580Z,17.04
2018-04-02T11:45:04.594Z,17.33
2018-04-02T11:46:04.616Z,17.77
2018-04-02T11:47:04.627Z,18.02
2018-04-02T11:48:04.685Z,17.78
2018-04-02T11:49:04.660Z,17.87
2018-04-02T11:50:04.674Z,18.05
2018-04-02T11:51:04.688Z,18.18
2018-04-02T11:52:04.705Z,18.44
2018-04-02T11:53:04.739Z,18.12
2018-04-02T11:54:04.736Z,17.82
2018-04-02T11:55:05.296Z,18.32
2018-04-02T11:56:04.773Z,18.11
2018-04-02T11:57:07.307Z,18.23
2018-04-02T11:58:04.805Z,18.11
2018-04-02T11:59:04.820Z,18.10
2018-04-02T12:00:04.838Z,18.21
2018-04-02T12:01:05.834Z,18.08
2018-04-02T12:02:04.868Z,18.41
2018-04-02T12:03:04.885Z,18.35
2018-04-02T12:04:04.902Z,18.33
2018-04-02T12:05:04.953Z,18.12
2018-04-02T12:06:04.939Z,18.41
2018-04-02T12:07:04.950Z,17.92
2018-04-02T12:08:04.970Z,18.02
2018-04-02T12:09:04.984Z,17.89
2018-04-02T12:10:05.016Z,17.54
2018-04-02T12:11:05.018Z,17.56
2018-04-02T12:12:05.034Z,17.48
2018-04-02T12:13:05.052Z,17.56
2018-04-02T12:14:05.066Z,17.86
2018-04-02T12:15:05.103Z,17.52
2018-04-02T12:16:05.099Z,17.43
2018-04-02T12:17:05.196Z,17.49
2018-04-02T12:18:05.131Z,17.81
2018-04-02T12:19:05.152Z,17.62
2018-04-02T12:20:05.169Z,17.41
2018-04-02T12:21:05.237Z,17.74
2018-04-02T12:22:05.221Z,18.30
2018-04-02T12:23:05.212Z,17.95
2018-04-02T12:24:05.235Z,18.15
2018-04-02T12:25:05.249Z,18.30
2018-04-02T12:26:05.297Z,17.84
2018-04-02T12:27:05.315Z,17.81
2018-04-02T12:28:05.296Z,17.86
2018-04-02T12:29:05.315Z,17.51
2018-04-02T12:30:05.331Z,17.68
2018-04-02T12:31:05.349Z,17.90
2018-04-02T12:32:05.379Z,17.97
2018-04-02T12:33:05.377Z,18.52
2018-04-02T12:34:05.401Z,18.17
2018-04-02T12:35:05.412Z,18.51
2018-04-02T12:36:05.429Z,18.41
2018-04-02T12:37:05.483Z,18.55
2018-04-02T12:38:05.466Z,18.10
2018-04-02T12:39:05.480Z,17.96
2018-04-02T12:40:05.497Z,17.66
2018-04-02T12:41:05.510Z,17.87
2018-04-02T12:42:05.568Z,18.15
2018-04-02T12:43:05.546Z,18.65
2018-04-02T12:44:05.563Z,18.27
2018-04-02T12:45:05.581Z,18.39
2018-04-02T12:46:05.598Z,17.77
2018-04-02T12:47:05.630Z,17.79
2018-04-02T12:48:05.631Z,18.07
2018-04-02T12:49:05.646Z,18.12
2018-04-02T12:50:05.662Z,17.90
2018-04-02T12:51:05.679Z,18.39
2018-04-02T12:52:05.713Z,17.92
2018-04-02T12:53:05.715Z,17.74
2018-04-02T12:54:05.727Z,17.82
2018-04-02T12:55:05.800Z,18.42
2018-04-02T12:56:05.771Z,18.62
2018-04-02T12:57:05.779Z,17.96
2018-04-02T12:58:05.796Z,17.70
2018-04-02T12:59:05.846Z,17.84
2018-04-02T13:00:05.834Z,18.32
2018-04-02T13:01:05.858Z,18.52
2018-04-02T13:02:05.880Z,18.78
2018-04-02T13:03:05.877Z,18.50
2018-04-02T13:04:05.894Z,17.79
2018-04-02T13:05:05.913Z,18.08
2018-04-02T13:06:05.947Z,18.66
2018-04-02T13:07:05.990Z,18.41
2018-04-02T13:08:06.002Z,18.12
2018-04-02T13:09:06.033Z,17.93
2018-04-02T13:10:06.041Z,18.02
2018-04-02T13:11:07.057Z,17.89
2018-04-02T13:12:06.037Z,17.72
2018-04-02T13:13:06.065Z,17.78
2018-04-02T13:14:06.081Z,17.54
2018-04-02T13:15:06.087Z,17.59
2018-04-02T13:16:06.166Z,18.00
2018-04-02T13:17:06.175Z,18.10